sensor_id;sensor_type;location;lat;lon;timestamp;temperature;humidity
9861;DHT22;4969;52.304;4.968;2023-03-23T00:02:11;17.95;63.85
9861;DHT22;4969;52.304;4.968;2023-03-23T00:04:39;18.02;64.90
9861;DHT22;4969;52.304;4.968;2023-03-23T00:07:07;17.90;62.87
9861;DHT22;4969;52.304;4.968;2023-03-23T00:09:34;17.68;64.19
9861;DHT22;4969;52.304;4.968;2023-03-23T00:12:06;17.47;62.67
9861;DHT22;4969;52.304;4.968;2023-03-23T00:14:33;17.34;66.05
9861;DHT22;4969;52.304;4.968;2023-03-23T00:17:07;17.26;64.54
9861;DHT22;4969;52.304;4.968;2023-03-23T00:19:35;17.51;62.05
9861;DHT22;4969;52.304;4.968;2023-03-23T00:22:13;17.17;67.54
9861;DHT22;4969;52.304;4.968;2023-03-23T00:24:40;17.23;65.51
9861;DHT22;4969;52.304;4.968;2023-03-23T00:27:07;16.96;64.50
9861;DHT22;4969;52.304;4.968;2023-03-23T00:29:38;17.20;65.78
9861;DHT22;4969;52.304;4.968;2023-03-23T00:32:04;17.13;66.06
9861;DHT22;4969;52.304;4.968;2023-03-23T00:34:31;17.07;65.05
9861;DHT22;4969;52.304;4.968;2023-03-23T00:36:59;17.34;64.86
9861;DHT22;4969;52.304;4.968;2023-03-23T00:39:28;17.19;64.99
9861;DHT22;4969;52.304;4.968;2023-03-23T00:41:55;16.92;65.45
9861;DHT22;4969;52.304;4.968;2023-03-23T00:44:26;16.66;65.02
9861;DHT22;4969;52.304;4.968;2023-03-23T00:46:54;16.73;64.44
9861;DHT22;4969;52.304;4.968;2023-03-23T00:49:22;16.88;66.84
9861;DHT22;4969;52.304;4.968;2023-03-23T00:51:50;16.82;67.41
9861;DHT22;4969;52.304;4.968;2023-03-23T00:54:17;16.37;65.04
9861;DHT22;4969;52.304;4.968;2023-03-23T00:56:45;16.75;67.24
9861;DHT22;4969;52.304;4.968;2023-03-23T00:59:12;17.40;65.99
9861;DHT22;4969;52.304;4.968;2023-03-23T01:01:39;17.92;64.17
9861;DHT22;4969;52.304;4.968;2023-03-23T01:04:06;17.89;63.43
9861;DHT22;4969;52.304;4.968;2023-03-23T01:06:34;18.17;63.75
9861;DHT22;4969;52.304;4.968;2023-03-23T01:09:04;17.90;63.29
9861;DHT22;4969;52.304;4.968;2023-03-23T01:11:32;17.82;62.00
9861;DHT22;4969;52.304;4.968;2023-03-23T01:14:00;17.68;63.87
9861;DHT22;4969;52.304;4.968;2023-03-23T01:16:27;17.32;65.94
9861;DHT22;4969;52.304;4.968;2023-03-23T01:18:53;17.06;65.35
9861;DHT22;4969;52.304;4.968;2023-03-23T01:21:20;17.93;63.98
9861;DHT22;4969;52.304;4.968;2023-03-23T01:23:47;18.09;62.82
9861;DHT22;4969;52.304;4.968;2023-03-23T01:26:17;17.52;61.16
9861;DHT22;4969;52.304;4.968;2023-03-23T01:28:44;17.76;63.97
9861;DHT22;4969;52.304;4.968;2023-03-23T01:31:14;17.78;64.23
9861;DHT22;4969;52.304;4.968;2023-03-23T01:33:42;17.26;62.78
9861;DHT22;4969;52.304;4.968;2023-03-23T01:36:11;17.31;65.07
9861;DHT22;4969;52.304;4.968;2023-03-23T01:38:38;17.44;64.89
9861;DHT22;4969;52.304;4.968;2023-03-23T01:41:05;17.52;64.14
9861;DHT22;4969;52.304;4.968;2023-03-23T01:43:32;17.76;64.49
9861;DHT22;4969;52.304;4.968;2023-03-23T01:45:58;17.02;64.05
9861;DHT22;4969;52.304;4.968;2023-03-23T01:48:28;17.14;66.34
9861;DHT22;4969;52.304;4.968;2023-03-23T01:50:58;17.99;63.22
9861;DHT22;4969;52.304;4.968;2023-03-23T01:53:29;17.62;62.57
9861;DHT22;4969;52.304;4.968;2023-03-23T01:55:57;17.62;63.84
9861;DHT22;4969;52.304;4.968;2023-03-23T01:58:28;17.35;63.99
9861;DHT22;4969;52.304;4.968;2023-03-23T02:00:57;17.45;62.44
9861;DHT22;4969;52.304;4.968;2023-03-23T02:03:27;17.47;64.14
9861;DHT22;4969;52.304;4.968;2023-03-23T02:05:55;17.27;64.93
9861;DHT22;4969;52.304;4.968;2023-03-23T02:08:24;16.72;63.71
9861;DHT22;4969;52.304;4.968;2023-03-23T02:10:53;16.73;66.40
9861;DHT22;4969;52.304;4.968;2023-03-23T02:13:20;16.98;65.67
9861;DHT22;4969;52.304;4.968;2023-03-23T02:15:53;17.31;65.64
9861;DHT22;4969;52.304;4.968;2023-03-23T02:18:41;17.27;64.28
9861;DHT22;4969;52.304;4.968;2023-03-23T02:27:16;16.88;61.74
9861;DHT22;4969;52.304;4.968;2023-03-23T02:29:53;17.26;61.95
9861;DHT22;4969;52.304;4.968;2023-03-23T02:32:38;17.26;66.08
9861;DHT22;4969;52.304;4.968;2023-03-23T02:35:10;17.16;61.94
9861;DHT22;4969;52.304;4.968;2023-03-23T02:37:45;16.40;64.66
9861;DHT22;4969;52.304;4.968;2023-03-23T02:40:16;16.40;66.87
9861;DHT22;4969;52.304;4.968;2023-03-23T02:42:48;17.09;65.67
9861;DHT22;4969;52.304;4.968;2023-03-23T02:45:17;16.95;62.60
9861;DHT22;4969;52.304;4.968;2023-03-23T02:47:47;16.76;63.57
9861;DHT22;4969;52.304;4.968;2023-03-23T02:50:16;17.03;65.04
9861;DHT22;4969;52.304;4.968;2023-03-23T02:52:46;16.82;64.77
9861;DHT22;4969;52.304;4.968;2023-03-23T02:55:15;16.89;64.29
9861;DHT22;4969;52.304;4.968;2023-03-23T02:57:42;16.82;65.95
9861;DHT22;4969;52.304;4.968;2023-03-23T03:00:13;16.76;64.57
9861;DHT22;4969;52.304;4.968;2023-03-23T03:02:41;16.65;64.63
9861;DHT22;4969;52.304;4.968;2023-03-23T03:05:17;16.93;66.17
9861;DHT22;4969;52.304;4.968;2023-03-23T03:08:00;17.10;63.98
9861;DHT22;4969;52.304;4.968;2023-03-23T03:10:31;16.89;66.00
9861;DHT22;4969;52.304;4.968;2023-03-23T03:13:04;16.59;65.13
9861;DHT22;4969;52.304;4.968;2023-03-23T03:15:35;16.58;64.84
9861;DHT22;4969;52.304;4.968;2023-03-23T03:18:08;16.58;64.95
9861;DHT22;4969;52.304;4.968;2023-03-23T03:20:43;16.62;66.57
9861;DHT22;4969;52.304;4.968;2023-03-23T03:23:11;16.41;67.04
9861;DHT22;4969;52.304;4.968;2023-03-23T03:25:40;16.05;65.90
9861;DHT22;4969;52.304;4.968;2023-03-23T03:28:08;16.13;65.97
9861;DHT22;4969;52.304;4.968;2023-03-23T03:30:36;16.41;64.79
9861;DHT22;4969;52.304;4.968;2023-03-23T03:33:05;16.48;67.09
9861;DHT22;4969;52.304;4.968;2023-03-23T03:35:35;16.23;66.71
9861;DHT22;4969;52.304;4.968;2023-03-23T03:38:07;15.92;66.62
9861;DHT22;4969;52.304;4.968;2023-03-23T03:40:34;16.03;68.17
9861;DHT22;4969;52.304;4.968;2023-03-23T03:43:01;14.89;69.86
9861;DHT22;4969;52.304;4.968;2023-03-23T03:45:28;13.95;75.13
9861;DHT22;4969;52.304;4.968;2023-03-23T03:47:55;14.13;74.21
9861;DHT22;4969;52.304;4.968;2023-03-23T03:50:21;14.76;74.46
9861;DHT22;4969;52.304;4.968;2023-03-23T03:52:48;14.93;70.74
9861;DHT22;4969;52.304;4.968;2023-03-23T03:55:16;14.90;72.70
9861;DHT22;4969;52.304;4.968;2023-03-23T03:57:43;14.57;71.84
9861;DHT22;4969;52.304;4.968;2023-03-23T04:00:11;14.28;72.06
9861;DHT22;4969;52.304;4.968;2023-03-23T04:02:40;14.67;72.65
9861;DHT22;4969;52.304;4.968;2023-03-23T04:05:07;15.27;71.17
9861;DHT22;4969;52.304;4.968;2023-03-23T04:07:35;15.16;69.47
9861;DHT22;4969;52.304;4.968;2023-03-23T04:10:05;15.07;71.24
9861;DHT22;4969;52.304;4.968;2023-03-23T04:12:34;15.92;68.55
9861;DHT22;4969;52.304;4.968;2023-03-23T04:15:01;15.64;69.02
9861;DHT22;4969;52.304;4.968;2023-03-23T04:17:27;15.27;69.47
9861;DHT22;4969;52.304;4.968;2023-03-23T04:19:54;15.58;69.77
9861;DHT22;4969;52.304;4.968;2023-03-23T04:22:22;15.28;70.10
9861;DHT22;4969;52.304;4.968;2023-03-23T04:24:56;15.96;69.14
9861;DHT22;4969;52.304;4.968;2023-03-23T04:27:24;14.89;71.71
9861;DHT22;4969;52.304;4.968;2023-03-23T04:29:54;14.03;74.01
9861;DHT22;4969;52.304;4.968;2023-03-23T04:32:24;14.17;74.16
9861;DHT22;4969;52.304;4.968;2023-03-23T04:34:54;14.42;73.13
9861;DHT22;4969;52.304;4.968;2023-03-23T04:37:21;14.51;73.46
9861;DHT22;4969;52.304;4.968;2023-03-23T04:39:51;14.14;73.43
9861;DHT22;4969;52.304;4.968;2023-03-23T04:42:27;14.26;73.54
9861;DHT22;4969;52.304;4.968;2023-03-23T04:44:55;13.79;73.84
9861;DHT22;4969;52.304;4.968;2023-03-23T04:47:22;13.92;75.46
9861;DHT22;4969;52.304;4.968;2023-03-23T04:49:48;14.48;74.02
9861;DHT22;4969;52.304;4.968;2023-03-23T04:52:16;13.78;74.69
9861;DHT22;4969;52.304;4.968;2023-03-23T04:54:43;13.90;74.77
9861;DHT22;4969;52.304;4.968;2023-03-23T04:57:09;13.78;75.84
9861;DHT22;4969;52.304;4.968;2023-03-23T04:59:37;13.82;75.07
9861;DHT22;4969;52.304;4.968;2023-03-23T05:02:05;14.33;73.94
9861;DHT22;4969;52.304;4.968;2023-03-23T05:04:32;13.92;74.02
9861;DHT22;4969;52.304;4.968;2023-03-23T05:06:59;13.68;74.38
9861;DHT22;4969;52.304;4.968;2023-03-23T05:09:25;13.85;75.75
9861;DHT22;4969;52.304;4.968;2023-03-23T05:11:52;13.92;75.84
9861;DHT22;4969;52.304;4.968;2023-03-23T05:14:18;13.72;74.85
9861;DHT22;4969;52.304;4.968;2023-03-23T05:16:46;14.31;74.69
9861;DHT22;4969;52.304;4.968;2023-03-23T05:19:15;14.47;71.72
9861;DHT22;4969;52.304;4.968;2023-03-23T05:21:41;14.23;74.02
9861;DHT22;4969;52.304;4.968;2023-03-23T05:24:09;14.44;72.62
9861;DHT22;4969;52.304;4.968;2023-03-23T05:26:36;14.21;72.17
9861;DHT22;4969;52.304;4.968;2023-03-23T05:29:02;14.03;73.58
9861;DHT22;4969;52.304;4.968;2023-03-23T05:31:29;13.99;74.27
9861;DHT22;4969;52.304;4.968;2023-03-23T05:33:55;14.82;72.80
9861;DHT22;4969;52.304;4.968;2023-03-23T05:36:24;14.60;70.24
9861;DHT22;4969;52.304;4.968;2023-03-23T05:38:51;13.97;74.75
9861;DHT22;4969;52.304;4.968;2023-03-23T05:41:17;14.18;73.30
9861;DHT22;4969;52.304;4.968;2023-03-23T05:43:44;14.09;72.39
9861;DHT22;4969;52.304;4.968;2023-03-23T05:46:10;14.02;72.72
9861;DHT22;4969;52.304;4.968;2023-03-23T05:48:37;13.83;72.92
9861;DHT22;4969;52.304;4.968;2023-03-23T05:51:04;13.50;73.78
9861;DHT22;4969;52.304;4.968;2023-03-23T05:53:31;13.38;74.42
9861;DHT22;4969;52.304;4.968;2023-03-23T05:55:59;13.47;75.43
9861;DHT22;4969;52.304;4.968;2023-03-23T05:58:26;13.44;76.46
9861;DHT22;4969;52.304;4.968;2023-03-23T06:00:52;13.92;76.79
9861;DHT22;4969;52.304;4.968;2023-03-23T06:03:20;13.35;74.22
9861;DHT22;4969;52.304;4.968;2023-03-23T06:05:48;12.75;76.04
9861;DHT22;4969;52.304;4.968;2023-03-23T06:08:15;14.37;71.96
9861;DHT22;4969;52.304;4.968;2023-03-23T06:10:43;14.26;75.65
9861;DHT22;4969;52.304;4.968;2023-03-23T06:13:10;13.93;71.89
9861;DHT22;4969;52.304;4.968;2023-03-23T06:15:36;13.34;75.32
9861;DHT22;4969;52.304;4.968;2023-03-23T06:18:04;14.09;75.97
9861;DHT22;4969;52.304;4.968;2023-03-23T06:20:30;14.10;74.39
9861;DHT22;4969;52.304;4.968;2023-03-23T06:22:58;14.14;74.97
9861;DHT22;4969;52.304;4.968;2023-03-23T06:25:25;13.52;74.31
9861;DHT22;4969;52.304;4.968;2023-03-23T06:27:53;13.61;76.13
9861;DHT22;4969;52.304;4.968;2023-03-23T06:30:20;13.55;74.81
9861;DHT22;4969;52.304;4.968;2023-03-23T06:32:47;13.89;75.55
9861;DHT22;4969;52.304;4.968;2023-03-23T06:35:14;13.90;78.02
9861;DHT22;4969;52.304;4.968;2023-03-23T06:37:41;13.96;76.84
9861;DHT22;4969;52.304;4.968;2023-03-23T06:40:08;13.35;73.58
9861;DHT22;4969;52.304;4.968;2023-03-23T06:42:36;13.63;74.58
9861;DHT22;4969;52.304;4.968;2023-03-23T06:45:05;13.89;73.63
9861;DHT22;4969;52.304;4.968;2023-03-23T06:47:32;13.78;73.16
9861;DHT22;4969;52.304;4.968;2023-03-23T06:49:59;13.37;74.22
9861;DHT22;4969;52.304;4.968;2023-03-23T06:52:26;13.47;74.68
9861;DHT22;4969;52.304;4.968;2023-03-23T06:54:53;13.40;73.65
9861;DHT22;4969;52.304;4.968;2023-03-23T06:57:20;13.71;73.54
9861;DHT22;4969;52.304;4.968;2023-03-23T06:59:46;13.23;73.31
9861;DHT22;4969;52.304;4.968;2023-03-23T07:02:14;13.44;73.63
9861;DHT22;4969;52.304;4.968;2023-03-23T07:04:41;14.00;74.96
9861;DHT22;4969;52.304;4.968;2023-03-23T07:07:09;14.03;75.61
9861;DHT22;4969;52.304;4.968;2023-03-23T07:09:36;13.97;75.12
9861;DHT22;4969;52.304;4.968;2023-03-23T07:12:03;13.82;71.14
9861;DHT22;4969;52.304;4.968;2023-03-23T07:14:29;13.66;77.23
9861;DHT22;4969;52.304;4.968;2023-03-23T07:16:56;13.30;72.75
9861;DHT22;4969;52.304;4.968;2023-03-23T07:19:24;13.37;75.19
9861;DHT22;4969;52.304;4.968;2023-03-23T07:21:51;13.95;72.90
9861;DHT22;4969;52.304;4.968;2023-03-23T07:24:17;13.88;76.02
9861;DHT22;4969;52.304;4.968;2023-03-23T07:26:44;13.69;73.36
9861;DHT22;4969;52.304;4.968;2023-03-23T07:29:11;13.23;71.95
9861;DHT22;4969;52.304;4.968;2023-03-23T07:31:37;13.48;73.84
9861;DHT22;4969;52.304;4.968;2023-03-23T07:34:04;13.72;74.93
9861;DHT22;4969;52.304;4.968;2023-03-23T07:36:32;13.16;72.82
9861;DHT22;4969;52.304;4.968;2023-03-23T07:39:02;12.85;73.49
9861;DHT22;4969;52.304;4.968;2023-03-23T07:41:30;12.83;74.22
9861;DHT22;4969;52.304;4.968;2023-03-23T07:43:57;12.86;74.39
9861;DHT22;4969;52.304;4.968;2023-03-23T07:46:23;12.79;74.00
9861;DHT22;4969;52.304;4.968;2023-03-23T07:48:50;13.52;76.57
9861;DHT22;4969;52.304;4.968;2023-03-23T07:51:17;13.45;75.31
9861;DHT22;4969;52.304;4.968;2023-03-23T07:53:45;12.92;72.07
9861;DHT22;4969;52.304;4.968;2023-03-23T07:56:12;12.95;74.84
9861;DHT22;4969;52.304;4.968;2023-03-23T07:58:40;13.13;72.76
9861;DHT22;4969;52.304;4.968;2023-03-23T08:01:06;12.93;72.12
9861;DHT22;4969;52.304;4.968;2023-03-23T08:03:33;12.65;72.33
9861;DHT22;4969;52.304;4.968;2023-03-23T08:06:00;12.89;72.31
9861;DHT22;4969;52.304;4.968;2023-03-23T08:08:26;12.86;72.65
9861;DHT22;4969;52.304;4.968;2023-03-23T08:10:54;13.16;74.41
9861;DHT22;4969;52.304;4.968;2023-03-23T08:13:21;13.71;73.31
9861;DHT22;4969;52.304;4.968;2023-03-23T08:15:48;13.38;72.93
9861;DHT22;4969;52.304;4.968;2023-03-23T08:18:15;13.45;72.29
9861;DHT22;4969;52.304;4.968;2023-03-23T08:20:42;13.71;73.33
9861;DHT22;4969;52.304;4.968;2023-03-23T08:23:10;13.37;73.01
9861;DHT22;4969;52.304;4.968;2023-03-23T08:25:37;13.75;77.36
9861;DHT22;4969;52.304;4.968;2023-03-23T08:28:05;14.05;73.74
9861;DHT22;4969;52.304;4.968;2023-03-23T08:30:31;14.30;70.31
9861;DHT22;4969;52.304;4.968;2023-03-23T08:32:59;13.69;71.98
9861;DHT22;4969;52.304;4.968;2023-03-23T08:35:27;13.88;70.31
9861;DHT22;4969;52.304;4.968;2023-03-23T08:37:53;14.35;73.50
9861;DHT22;4969;52.304;4.968;2023-03-23T08:40:22;14.95;71.15
9861;DHT22;4969;52.304;4.968;2023-03-23T08:42:50;14.75;69.89
9861;DHT22;4969;52.304;4.968;2023-03-23T08:45:20;14.48;73.07
9861;DHT22;4969;52.304;4.968;2023-03-23T08:47:48;14.90;74.32
9861;DHT22;4969;52.304;4.968;2023-03-23T08:50:20;15.41;72.30
9861;DHT22;4969;52.304;4.968;2023-03-23T08:52:48;14.62;72.37
9861;DHT22;4969;52.304;4.968;2023-03-23T08:55:15;14.60;66.56
9861;DHT22;4969;52.304;4.968;2023-03-23T08:57:43;13.77;71.21
9861;DHT22;4969;52.304;4.968;2023-03-23T09:00:12;13.71;71.20
9861;DHT22;4969;52.304;4.968;2023-03-23T09:02:45;13.89;70.84
9861;DHT22;4969;52.304;4.968;2023-03-23T09:05:13;13.99;71.39
9861;DHT22;4969;52.304;4.968;2023-03-23T09:07:41;14.78;72.56
9861;DHT22;4969;52.304;4.968;2023-03-23T09:10:09;15.00;68.58
9861;DHT22;4969;52.304;4.968;2023-03-23T09:12:38;15.09;69.87
9861;DHT22;4969;52.304;4.968;2023-03-23T09:15:08;14.98;68.97
9861;DHT22;4969;52.304;4.968;2023-03-23T09:17:36;15.02;70.72
9861;DHT22;4969;52.304;4.968;2023-03-23T09:20:05;15.50;66.72
9861;DHT22;4969;52.304;4.968;2023-03-23T09:22:36;15.11;67.13
9861;DHT22;4969;52.304;4.968;2023-03-23T09:25:04;15.54;71.67
9861;DHT22;4969;52.304;4.968;2023-03-23T09:27:31;15.68;68.88
9861;DHT22;4969;52.304;4.968;2023-03-23T09:29:57;15.85;69.69
9861;DHT22;4969;52.304;4.968;2023-03-23T09:32:26;16.28;70.91
9861;DHT22;4969;52.304;4.968;2023-03-23T09:34:52;16.36;62.19
9861;DHT22;4969;52.304;4.968;2023-03-23T09:37:22;16.47;64.81
9861;DHT22;4969;52.304;4.968;2023-03-23T09:39:48;16.13;62.55
9861;DHT22;4969;52.304;4.968;2023-03-23T09:42:28;15.68;67.55
9861;DHT22;4969;52.304;4.968;2023-03-23T09:45:06;16.05;65.75
9861;DHT22;4969;52.304;4.968;2023-03-23T09:47:40;16.42;66.31
9861;DHT22;4969;52.304;4.968;2023-03-23T09:50:12;16.33;63.89
9861;DHT22;4969;52.304;4.968;2023-03-23T09:52:46;16.19;66.41
9861;DHT22;4969;52.304;4.968;2023-03-23T09:55:15;15.78;62.36
9861;DHT22;4969;52.304;4.968;2023-03-23T09:57:47;16.19;69.03
9861;DHT22;4969;52.304;4.968;2023-03-23T10:00:20;15.65;62.32
9861;DHT22;4969;52.304;4.968;2023-03-23T10:02:55;15.87;68.43
9861;DHT22;4969;52.304;4.968;2023-03-23T10:05:29;15.69;63.57
9861;DHT22;4969;52.304;4.968;2023-03-23T10:07:59;15.26;64.81
9861;DHT22;4969;52.304;4.968;2023-03-23T10:10:33;14.98;64.76
9861;DHT22;4969;52.304;4.968;2023-03-23T10:13:07;15.18;66.27
9861;DHT22;4969;52.304;4.968;2023-03-23T10:15:38;15.54;64.87
9861;DHT22;4969;52.304;4.968;2023-03-23T10:18:13;14.82;64.84
9861;DHT22;4969;52.304;4.968;2023-03-23T10:20:46;15.23;62.83
9861;DHT22;4969;52.304;4.968;2023-03-23T10:23:33;15.45;69.13
9861;DHT22;4969;52.304;4.968;2023-03-23T10:26:06;15.43;65.07
9861;DHT22;4969;52.304;4.968;2023-03-23T10:28:36;15.58;60.92
9861;DHT22;4969;52.304;4.968;2023-03-23T10:31:05;15.40;64.64
9861;DHT22;4969;52.304;4.968;2023-03-23T10:33:38;16.26;62.48
9861;DHT22;4969;52.304;4.968;2023-03-23T10:36:10;16.51;70.49
9861;DHT22;4969;52.304;4.968;2023-03-23T10:38:43;17.34;65.49
9861;DHT22;4969;52.304;4.968;2023-03-23T10:41:12;17.27;60.75
9861;DHT22;4969;52.304;4.968;2023-03-23T10:43:39;17.13;66.80
9861;DHT22;4969;52.304;4.968;2023-03-23T10:46:15;17.76;63.67
9861;DHT22;4969;52.304;4.968;2023-03-23T10:48:44;17.26;57.49
9861;DHT22;4969;52.304;4.968;2023-03-23T10:51:17;16.57;60.59
9861;DHT22;4969;52.304;4.968;2023-03-23T10:53:50;16.82;63.69
9861;DHT22;4969;52.304;4.968;2023-03-23T10:56:23;17.38;60.30
9861;DHT22;4969;52.304;4.968;2023-03-23T10:58:51;16.77;63.85
9861;DHT22;4969;52.304;4.968;2023-03-23T11:01:19;16.69;65.56
9861;DHT22;4969;52.304;4.968;2023-03-23T11:03:49;17.14;62.98
9861;DHT22;4969;52.304;4.968;2023-03-23T11:06:22;17.26;64.55
9861;DHT22;4969;52.304;4.968;2023-03-23T11:08:52;17.64;63.68
9861;DHT22;4969;52.304;4.968;2023-03-23T11:11:25;17.87;63.35
9861;DHT22;4969;52.304;4.968;2023-03-23T11:13:57;17.55;63.11
9861;DHT22;4969;52.304;4.968;2023-03-23T11:16:25;17.38;60.92
9861;DHT22;4969;52.304;4.968;2023-03-23T11:18:53;17.69;61.00
9861;DHT22;4969;52.304;4.968;2023-03-23T11:21:21;17.02;58.74
9861;DHT22;4969;52.304;4.968;2023-03-23T11:23:51;16.51;63.23
9861;DHT22;4969;52.304;4.968;2023-03-23T11:26:21;17.19;62.73
9861;DHT22;4969;52.304;4.968;2023-03-23T11:28:52;17.28;57.72
9861;DHT22;4969;52.304;4.968;2023-03-23T11:31:22;17.61;55.13
9861;DHT22;4969;52.304;4.968;2023-03-23T11:33:52;17.49;56.67
9861;DHT22;4969;52.304;4.968;2023-03-23T11:36:20;17.02;59.51
9861;DHT22;4969;52.304;4.968;2023-03-23T11:38:53;16.77;59.48
9861;DHT22;4969;52.304;4.968;2023-03-23T11:41:23;16.77;62.20
9861;DHT22;4969;52.304;4.968;2023-03-23T11:43:52;16.38;60.21
9861;DHT22;4969;52.304;4.968;2023-03-23T11:46:30;16.88;59.73
9861;DHT22;4969;52.304;4.968;2023-03-23T11:49:01;16.98;60.16
9861;DHT22;4969;52.304;4.968;2023-03-23T11:51:33;17.75;61.17
9861;DHT22;4969;52.304;4.968;2023-03-23T11:54:11;18.64;57.42
9861;DHT22;4969;52.304;4.968;2023-03-23T11:56:41;18.64;54.06
9861;DHT22;4969;52.304;4.968;2023-03-23T11:59:10;17.87;54.88
9861;DHT22;4969;52.304;4.968;2023-03-23T12:01:47;18.12;54.06
9861;DHT22;4969;52.304;4.968;2023-03-23T12:04:45;17.57;54.26
9861;DHT22;4969;52.304;4.968;2023-03-23T12:07:25;17.96;58.49
9861;DHT22;4969;52.304;4.968;2023-03-23T12:10:02;17.99;55.08
9861;DHT22;4969;52.304;4.968;2023-03-23T12:12:39;17.40;57.51
9861;DHT22;4969;52.304;4.968;2023-03-23T12:15:18;17.34;59.91
9861;DHT22;4969;52.304;4.968;2023-03-23T12:17:53;16.71;58.44
9861;DHT22;4969;52.304;4.968;2023-03-23T12:20:31;17.21;61.63
9861;DHT22;4969;52.304;4.968;2023-03-23T12:23:11;16.47;56.44
9861;DHT22;4969;52.304;4.968;2023-03-23T12:25:59;16.28;57.64
9861;DHT22;4969;52.304;4.968;2023-03-23T12:28:37;16.26;63.39
9861;DHT22;4969;52.304;4.968;2023-03-23T12:31:11;16.12;61.50
9861;DHT22;4969;52.304;4.968;2023-03-23T12:33:51;15.86;64.10
9861;DHT22;4969;52.304;4.968;2023-03-23T12:36:32;15.50;68.63
9861;DHT22;4969;52.304;4.968;2023-03-23T12:39:12;15.59;64.06
9861;DHT22;4969;52.304;4.968;2023-03-23T12:41:48;15.93;66.60
9861;DHT22;4969;52.304;4.968;2023-03-23T12:44:19;15.82;63.24
9861;DHT22;4969;52.304;4.968;2023-03-23T12:47:21;15.76;63.13
9861;DHT22;4969;52.304;4.968;2023-03-23T12:49:53;16.54;62.53
9861;DHT22;4969;52.304;4.968;2023-03-23T12:52:24;16.71;65.48
9861;DHT22;4969;52.304;4.968;2023-03-23T12:54:59;16.08;61.92
9861;DHT22;4969;52.304;4.968;2023-03-23T12:57:33;16.44;65.44
9861;DHT22;4969;52.304;4.968;2023-03-23T13:00:06;16.51;60.66
9861;DHT22;4969;52.304;4.968;2023-03-23T13:02:41;16.14;62.40
9861;DHT22;4969;52.304;4.968;2023-03-23T13:05:26;16.64;60.21
9861;DHT22;4969;52.304;4.968;2023-03-23T13:07:56;16.12;59.03
9861;DHT22;4969;52.304;4.968;2023-03-23T13:10:29;15.81;63.28
9861;DHT22;4969;52.304;4.968;2023-03-23T13:12:59;16.73;62.26
9861;DHT22;4969;52.304;4.968;2023-03-23T13:15:35;17.51;62.61
9861;DHT22;4969;52.304;4.968;2023-03-23T13:18:10;17.03;59.03
9861;DHT22;4969;52.304;4.968;2023-03-23T13:20:51;16.68;60.40
9861;DHT22;4969;52.304;4.968;2023-03-23T13:23:21;15.92;60.30
9861;DHT22;4969;52.304;4.968;2023-03-23T13:25:52;15.93;62.48
9861;DHT22;4969;52.304;4.968;2023-03-23T13:28:21;16.24;59.43
9861;DHT22;4969;52.304;4.968;2023-03-23T13:30:56;15.76;63.68
9861;DHT22;4969;52.304;4.968;2023-03-23T13:33:24;16.47;65.55
9861;DHT22;4969;52.304;4.968;2023-03-23T13:35:51;16.59;58.82
9861;DHT22;4969;52.304;4.968;2023-03-23T13:38:21;16.23;58.57
9861;DHT22;4969;52.304;4.968;2023-03-23T13:40:50;16.08;61.43
9861;DHT22;4969;52.304;4.968;2023-03-23T13:43:28;16.28;56.91
9861;DHT22;4969;52.304;4.968;2023-03-23T13:46:07;16.08;62.17
9861;DHT22;4969;52.304;4.968;2023-03-23T13:48:43;16.00;58.84
9861;DHT22;4969;52.304;4.968;2023-03-23T13:51:35;16.19;62.31
9861;DHT22;4969;52.304;4.968;2023-03-23T13:54:18;16.59;60.83
9861;DHT22;4969;52.304;4.968;2023-03-23T13:56:52;16.89;65.08
9861;DHT22;4969;52.304;4.968;2023-03-23T13:59:34;16.49;58.36
9861;DHT22;4969;52.304;4.968;2023-03-23T14:02:36;16.33;57.83
9861;DHT22;4969;52.304;4.968;2023-03-23T14:05:30;16.27;62.64
9861;DHT22;4969;52.304;4.968;2023-03-23T14:07:58;16.19;57.53
9861;DHT22;4969;52.304;4.968;2023-03-23T14:10:32;16.59;59.32
9861;DHT22;4969;52.304;4.968;2023-03-23T14:13:00;16.49;58.10
9861;DHT22;4969;52.304;4.968;2023-03-23T14:15:30;16.98;58.96
9861;DHT22;4969;52.304;4.968;2023-03-23T14:17:57;16.83;56.07
9861;DHT22;4969;52.304;4.968;2023-03-23T14:20:31;16.31;59.89
9861;DHT22;4969;52.304;4.968;2023-03-23T14:22:59;16.19;58.77
9861;DHT22;4969;52.304;4.968;2023-03-23T14:25:28;16.42;57.35
9861;DHT22;4969;52.304;4.968;2023-03-23T14:27:55;16.20;58.71
9861;DHT22;4969;52.304;4.968;2023-03-23T14:30:24;17.09;59.87
9861;DHT22;4969;52.304;4.968;2023-03-23T14:32:52;17.04;54.97
9861;DHT22;4969;52.304;4.968;2023-03-23T14:35:26;16.92;59.42
9861;DHT22;4969;52.304;4.968;2023-03-23T14:37:53;16.86;54.20
9861;DHT22;4969;52.304;4.968;2023-03-23T14:40:21;16.40;57.49
9861;DHT22;4969;52.304;4.968;2023-03-23T14:42:47;16.36;56.85
9861;DHT22;4969;52.304;4.968;2023-03-23T14:45:17;16.13;58.61
9861;DHT22;4969;52.304;4.968;2023-03-23T14:47:47;16.12;57.46
9861;DHT22;4969;52.304;4.968;2023-03-23T14:50:27;16.51;58.77
9861;DHT22;4969;52.304;4.968;2023-03-23T14:52:58;16.86;56.88
9861;DHT22;4969;52.304;4.968;2023-03-23T14:55:26;16.73;55.66
9861;DHT22;4969;52.304;4.968;2023-03-23T14:58:05;16.48;60.07
9861;DHT22;4969;52.304;4.968;2023-03-23T15:00:35;16.54;58.19
9861;DHT22;4969;52.304;4.968;2023-03-23T15:03:06;16.92;57.05
9861;DHT22;4969;52.304;4.968;2023-03-23T15:05:40;17.10;55.36
9861;DHT22;4969;52.304;4.968;2023-03-23T15:08:14;16.59;57.57
9861;DHT22;4969;52.304;4.968;2023-03-23T15:10:41;16.76;58.56
9861;DHT22;4969;52.304;4.968;2023-03-23T15:13:11;16.59;58.72
9861;DHT22;4969;52.304;4.968;2023-03-23T15:15:38;17.23;57.67
9861;DHT22;4969;52.304;4.968;2023-03-23T15:18:29;17.04;57.99
9861;DHT22;4969;52.304;4.968;2023-03-23T15:20:57;17.14;62.53
9861;DHT22;4969;52.304;4.968;2023-03-23T15:23:28;17.04;60.57
9861;DHT22;4969;52.304;4.968;2023-03-23T15:25:56;16.76;61.47
9861;DHT22;4969;52.304;4.968;2023-03-23T15:28:29;16.76;63.33
9861;DHT22;4969;52.304;4.968;2023-03-23T15:30:59;16.73;58.43
9861;DHT22;4969;52.304;4.968;2023-03-23T15:33:26;17.45;57.75
9861;DHT22;4969;52.304;4.968;2023-03-23T15:35:56;17.44;61.10
9861;DHT22;4969;52.304;4.968;2023-03-23T15:38:26;17.75;57.53
9861;DHT22;4969;52.304;4.968;2023-03-23T15:40:55;17.49;56.98
9861;DHT22;4969;52.304;4.968;2023-03-23T15:43:25;17.14;56.81
9861;DHT22;4969;52.304;4.968;2023-03-23T15:45:54;17.24;56.85
9861;DHT22;4969;52.304;4.968;2023-03-23T15:48:22;17.76;60.59
9861;DHT22;4969;52.304;4.968;2023-03-23T15:50:50;17.71;58.28
9861;DHT22;4969;52.304;4.968;2023-03-23T15:53:28;18.10;58.39
9861;DHT22;4969;52.304;4.968;2023-03-23T15:55:55;18.31;59.69
9861;DHT22;4969;52.304;4.968;2023-03-23T15:58:24;18.23;61.06
9861;DHT22;4969;52.304;4.968;2023-03-23T16:00:51;18.10;55.09
9861;DHT22;4969;52.304;4.968;2023-03-23T16:03:21;18.58;60.73
9861;DHT22;4969;52.304;4.968;2023-03-23T16:05:52;18.78;55.03
9861;DHT22;4969;52.304;4.968;2023-03-23T16:08:18;18.67;56.82
9861;DHT22;4969;52.304;4.968;2023-03-23T16:10:47;18.50;55.94
9861;DHT22;4969;52.304;4.968;2023-03-23T16:13:13;18.17;54.93
9861;DHT22;4969;52.304;4.968;2023-03-23T16:15:40;18.00;59.61
9861;DHT22;4969;52.304;4.968;2023-03-23T16:18:10;18.07;57.82
9861;DHT22;4969;52.304;4.968;2023-03-23T16:20:41;17.83;56.84
9861;DHT22;4969;52.304;4.968;2023-03-23T16:23:07;17.31;58.27
9861;DHT22;4969;52.304;4.968;2023-03-23T16:25:34;18.03;59.71
9861;DHT22;4969;52.304;4.968;2023-03-23T16:28:02;18.00;56.53